Flight Track Log - Related Links

Times and Time Zones

All times are in EDT time to prevent confusion due to time zone crossing. See the N1926A flight status page for this flight to view local times or setup timezone preferences in your user account.

Time Position Orientation Groundspeed Altitude Reporting Facility
EDT Latitude Longitude Course Direction KTS MPH feet Rate Location/Type
Sat 17:27:30 30.2922 -87.6553 64° Northeast 149 171 700  Level Jacksonville Center
Sat 17:28:12 30.3061 -87.6225 64° Northeast 163 188 2,100 1,981 Climbing Jacksonville Center
Sat 17:29:13 30.3228 -87.5678 71° East 179 206 4,100 2,083 Climbing Jacksonville Center
Sat 17:30:13 30.3269 -87.5056 86° East 195 224 6,300 1,736 Climbing Jacksonville Center
Sat 17:31:14 30.3272 -87.4431 90° East 200 230 7,600 1,279 Climbing Jacksonville Center
Sat 17:32:15 30.3278 -87.3683 89° East 225 259 8,900 694 Climbing Jacksonville Center
Sat 17:33:15 30.3306 -87.2892 88° East 247 284 9,000 100 Climbing Jacksonville Center
Sat 17:35:00 30.3271 -87.1750 92° East  Level FlightAware Approximate
Sat 17:42:00 30.3221 -86.7178 87° East  Level FlightAware Approximate
Sat 17:43:00 30.3247 -86.6526 87° East  Level FlightAware Approximate
Sat 17:44:00 30.3273 -86.5874 87° East  Level FlightAware Approximate
Sat 17:45:00 30.3299 -86.5222 87° East  Level FlightAware Approximate
Sat 17:46:00 30.3324 -86.4570 87° East  Level FlightAware Approximate
Sat 17:47:00 30.3333 -86.3917 90° East  Level FlightAware Approximate
Sat 17:48:00 30.3334 -86.3265 90° East  Level FlightAware Approximate
Sat 17:49:00 30.3333 -86.2612 90° East  Level FlightAware Approximate
Sat 17:50:00 30.3334 -86.1959 90° East  Level FlightAware Approximate
Sat 17:51:00 30.3334 -86.1307 90° East  Level FlightAware Approximate
Sat 17:52:00 30.3342 -86.0658 41° Northeast  Level FlightAware Approximate
Sat 17:53:00 30.3500 -86.0089 90° East  Level FlightAware Approximate
Sat 17:54:00 30.3500 -85.9437 90° East  Level FlightAware Approximate
Sat 17:55:00 30.3500 -85.8784 90° East  Level FlightAware Approximate
Sat 17:56:00 30.3500 -85.8131 90° East  Level FlightAware Approximate
Sat 17:57:00 30.3582 -85.7956 90° East  Level Estimated
Sat 17:58:00 30.3582 -85.7956 90° East  Level Estimated
Sat 17:59:00 30.3582 -85.7956 90° East  Level Estimated
Sat 18:00:00 30.3582 -85.7956 90° East  Level Estimated

Login

Don't have an account? Register now (free) for customized features, flight alerts, and more!